TimeAKDT,TemperatureF,Dew PointF,Humidity,Sea Level PressureIn,VisibilityMPH,Wind Direction,Wind SpeedMPH,Gust SpeedMPH,PrecipitationIn,Events,Conditions,WindDirDegrees,DateUTC
12:16 AM,50.0,46.4,87,30.03,10.0,North,5.8,-,N/A,,Clear,350,2013-07-18 08:16:00
12:36 AM,48.2,44.6,87,30.04,10.0,NNW,4.6,-,N/A,,Clear,330,2013-07-18 08:36:00
12:56 AM,46.4,42.8,87,30.04,10.0,North,3.5,-,N/A,,Clear,360,2013-07-18 08:56:00
1:16 AM,44.6,42.8,93,30.04,10.0,North,3.5,-,N/A,,Clear,10,2013-07-18 09:16:00
1:36 AM,44.6,42.8,93,30.05,10.0,Calm,Calm,-,N/A,,Clear,0,2013-07-18 09:36:00
1:56 AM,44.6,42.8,93,30.05,10.0,Calm,Calm,-,N/A,,Clear,0,2013-07-18 09:56:00
2:16 AM,44.6,41.0,87,30.05,10.0,North,3.5,-,N/A,,Clear,360,2013-07-18 10:16:00
2:36 AM,42.8,41.0,93,30.06,10.0,Calm,Calm,-,N/A,,Clear,0,2013-07-18 10:36:00
2:56 AM,42.8,41.0,93,30.06,10.0,Calm,Calm,-,N/A,,Clear,0,2013-07-18 10:56:00
3:16 AM,42.8,41.0,93,30.05,10.0,Calm,Calm,-,N/A,,Partly Cloudy,0,2013-07-18 11:16:00
3:36 AM,42.8,39.2,87,30.06,10.0,Calm,Calm,-,N/A,,Clear,0,2013-07-18 11:36:00
3:56 AM,42.8,39.2,87,30.05,10.0,Calm,Calm,-,N/A,,Clear,0,2013-07-18 11:56:00
4:16 AM,42.8,39.2,87,30.06,10.0,Calm,Calm,-,N/A,,Clear,0,2013-07-18 12:16:00
4:36 AM,41.0,39.2,93,30.06,10.0,Calm,Calm,-,N/A,,Clear,0,2013-07-18 12:36:00
4:56 AM,41.0,39.2,93,30.06,10.0,Calm,Calm,-,N/A,,Clear,0,2013-07-18 12:56:00
5:16 AM,42.8,39.2,87,30.06,10.0,Calm,Calm,-,N/A,,Clear,0,2013-07-18 13:16:00
5:36 AM,42.8,39.2,87,30.06,10.0,Calm,Calm,-,N/A,,Clear,0,2013-07-18 13:36:00
5:56 AM,42.8,41.0,93,30.06,10.0,Calm,Calm,-,N/A,,Clear,0,2013-07-18 13:56:00
6:16 AM,44.6,42.8,93,30.06,10.0,Calm,Calm,-,N/A,,Clear,0,2013-07-18 14:16:00
6:36 AM,44.6,42.8,93,30.06,10.0,Calm,Calm,-,N/A,,Clear,0,2013-07-18 14:36:00
6:56 AM,46.4,42.8,87,30.07,10.0,Calm,Calm,-,N/A,,Clear,0,2013-07-18 14:56:00
7:16 AM,48.2,42.8,82,30.07,10.0,Calm,Calm,-,N/A,,Mostly Cloudy,0,2013-07-18 15:16:00
7:36 AM,48.2,44.6,87,30.06,10.0,North,-9999.0,-,N/A,,Overcast,0,2013-07-18 15:36:00
7:56 AM,50.0,44.6,82,30.06,10.0,Calm,Calm,-,N/A,,Overcast,0,2013-07-18 15:56:00
8:16 AM,51.8,44.6,76,30.06,10.0,Calm,Calm,-,N/A,,Scattered Clouds,0,2013-07-18 16:16:00
8:36 AM,51.8,46.4,82,30.06,10.0,Calm,Calm,-,N/A,,Partly Cloudy,0,2013-07-18 16:36:00
8:56 AM,53.6,46.4,77,30.06,10.0,Calm,Calm,-,N/A,,Clear,0,2013-07-18 16:56:00
9:16 AM,53.6,46.4,77,30.06,10.0,Calm,Calm,-,N/A,,Clear,0,2013-07-18 17:16:00
9:36 AM,55.4,46.4,72,30.06,10.0,SSW,3.5,-,N/A,,Clear,210,2013-07-18 17:36:00
9:56 AM,55.4,44.6,67,30.06,10.0,Calm,Calm,-,N/A,,Clear,0,2013-07-18 17:56:00
10:16 AM,55.4,44.6,67,30.06,10.0,Calm,Calm,-,N/A,,Clear,0,2013-07-18 18:16:00
10:36 AM,57.2,44.6,63,30.05,7.0,Calm,Calm,-,N/A,,Clear,0,2013-07-18 18:36:00
10:56 AM,57.2,44.6,63,30.05,10.0,South,4.6,-,N/A,,Mostly Cloudy,170,2013-07-18 18:56:00
11:16 AM,57.2,44.6,63,30.05,10.0,SSW,6.9,-,N/A,,Overcast,200,2013-07-18 19:16:00
11:36 AM,55.4,42.8,63,30.05,10.0,Calm,Calm,-,N/A,,Overcast,0,2013-07-18 19:36:00
11:56 AM,55.4,42.8,63,30.04,10.0,Calm,Calm,-,N/A,,Overcast,0,2013-07-18 19:56:00
12:16 PM,57.2,42.8,59,30.03,10.0,Calm,Calm,-,N/A,,Mostly Cloudy,0,2013-07-18 20:16:00
12:36 PM,57.2,42.8,59,30.03,10.0,SSE,3.5,-,N/A,,Overcast,150,2013-07-18 20:36:00
12:56 PM,57.2,42.8,59,30.03,10.0,Calm,Calm,-,N/A,,Mostly Cloudy,0,2013-07-18 20:56:00
1:16 PM,60.8,44.6,55,30.03,10.0,South,5.8,-,N/A,,Mostly Cloudy,180,2013-07-18 21:16:00
1:36 PM,60.8,42.8,52,30.02,9.0,SSW,6.9,-,N/A,,Mostly Cloudy,200,2013-07-18 21:36:00
1:56 PM,60.8,44.6,55,30.02,10.0,SSW,8.1,-,N/A,,Mostly Cloudy,210,2013-07-18 21:56:00
2:16 PM,62.6,44.6,52,30.02,10.0,SSW,10.4,-,N/A,,Overcast,210,2013-07-18 22:16:00
2:36 PM,62.6,42.8,48,30.02,9.0,SW,6.9,-,N/A,,Mostly Cloudy,220,2013-07-18 22:36:00
2:56 PM,62.6,44.6,52,30.02,8.0,SW,8.1,-,N/A,,Mostly Cloudy,220,2013-07-18 22:56:00
3:16 PM,62.6,42.8,48,30.02,9.0,SSW,8.1,-,N/A,,Overcast,210,2013-07-18 23:16:00
3:36 PM,62.6,44.6,52,30.02,8.0,SW,9.2,-,N/A,,Overcast,220,2013-07-18 23:36:00
3:56 PM,60.8,44.6,55,30.02,8.0,SSW,6.9,-,N/A,,Overcast,210,2013-07-18 23:56:00
4:16 PM,60.8,44.6,55,30.02,10.0,SSW,6.9,-,N/A,,Overcast,210,2013-07-19 00:16:00
4:36 PM,57.2,46.4,67,30.03,9.0,ESE,6.9,-,N/A,,Overcast,120,2013-07-19 00:36:00
4:56 PM,57.2,48.2,72,30.02,10.0,ENE,9.2,-,N/A,,Overcast,60,2013-07-19 00:56:00
5:16 PM,60.8,50.0,68,30.02,10.0,ENE,10.4,-,N/A,,Overcast,60,2013-07-19 01:16:00
5:36 PM,62.6,48.2,59,30.01,10.0,NE,9.2,-,N/A,,Mostly Cloudy,50,2013-07-19 01:36:00
5:56 PM,62.6,48.2,59,30.01,10.0,NNE,10.4,-,N/A,,Scattered Clouds,30,2013-07-19 01:56:00
6:16 PM,62.6,46.4,55,30.00,10.0,NE,11.5,-,N/A,,Mostly Cloudy,50,2013-07-19 02:16:00
6:36 PM,62.6,46.4,55,30.00,10.0,NNE,11.5,-,N/A,,Partly Cloudy,30,2013-07-19 02:36:00
6:56 PM,62.6,46.4,55,30.00,9.0,NNE,10.4,16.1,N/A,,Clear,20,2013-07-19 02:56:00
7:16 PM,62.6,46.4,55,30.00,10.0,NNE,11.5,-,N/A,,Clear,30,2013-07-19 03:16:00
7:36 PM,60.8,48.2,63,29.99,10.0,NNE,12.7,-,N/A,,Clear,30,2013-07-19 03:36:00
7:56 PM,60.8,48.2,63,29.99,10.0,NE,12.7,-,N/A,,Clear,40,2013-07-19 03:56:00
8:16 PM,59.0,46.4,63,30.00,10.0,NE,8.1,-,N/A,,Clear,50,2013-07-19 04:16:00
8:36 PM,59.0,46.4,63,30.00,10.0,NNE,9.2,-,N/A,,Clear,20,2013-07-19 04:36:00
8:56 PM,59.0,44.6,59,29.99,10.0,NNE,9.2,-,N/A,,Mostly Cloudy,30,2013-07-19 04:56:00
9:16 PM,59.0,44.6,59,30.00,10.0,NE,8.1,-,N/A,,Mostly Cloudy,50,2013-07-19 05:16:00
9:36 PM,59.0,46.4,63,30.00,10.0,NNE,6.9,-,N/A,,Overcast,30,2013-07-19 05:36:00
9:56 PM,59.0,46.4,63,30.00,10.0,NE,6.9,-,N/A,,Mostly Cloudy,40,2013-07-19 05:56:00
10:16 PM,57.2,46.4,67,30.00,10.0,NE,6.9,-,N/A,,Scattered Clouds,40,2013-07-19 06:16:00
10:36 PM,57.2,46.4,67,30.00,10.0,ENE,5.8,-,N/A,,Mostly Cloudy,60,2013-07-19 06:36:00
10:56 PM,57.2,46.4,67,30.00,10.0,East,6.9,-,N/A,,Overcast,80,2013-07-19 06:56:00
11:16 PM,57.2,46.4,67,30.01,10.0,ESE,8.1,-,N/A,,Overcast,120,2013-07-19 07:16:00
11:36 PM,55.4,48.2,77,30.01,6.0,ENE,8.1,-,N/A,,Overcast,70,2013-07-19 07:36:00
11:56 PM,53.6,48.2,82,30.02,10.0,NE,4.6,-,N/A,,Overcast,50,2013-07-19 07:56:00